Time;durP1;ratioP1;P1;durP2;ratioP2;P2;SDS_P1;SDS_P2;PMS_P1;PMS_P2;Temp;Humidity;BMP_temperature;BMP_pressure;BME280_temperature;BME280_humidity;BME280_pressure;Samples;Min_cycle;Max_cycle;Signal;HPM_P1;HPM_P2
2023/01/05 00:02:11;;;;;;;32.50;4.38;;;11.00;99.90;;;;;;5077667;28;20476;-72
2023/01/05 00:04:37;;;;;;;25.73;4.13;;;10.90;99.90;;;;;;5077527;28;20028;-72
2023/01/05 00:07:03;;;;;;;35.80;4.95;;;10.80;99.90;;;;;;5076486;28;20086;-72
2023/01/05 00:09:28;;;;;;;38.30;4.47;;;10.80;99.90;;;;;;5075693;28;20142;-72
2023/01/05 00:23:19;;;;;;;;;;;10.50;99.90;;;;;;5046688;28;20024;-72
2023/01/05 00:25:45;;;;;;;37.95;4.80;;;10.50;99.90;;;;;;5068063;28;19916;-72
2023/01/05 00:28:11;;;;;;;37.60;4.07;;;10.50;99.90;;;;;;5078045;28;20024;-71
2023/01/05 00:30:44;;;;;;;37.38;4.68;;;10.50;99.90;;;;;;5077088;28;20024;-71
2023/01/05 00:33:13;;;;;;;37.40;4.03;;;10.50;99.90;;;;;;5076289;28;20043;-72
2023/01/05 00:35:38;;;;;;;31.38;3.85;;;10.40;99.90;;;;;;5076925;28;20391;-72
2023/01/05 00:38:05;;;;;;;30.38;5.75;;;10.30;99.90;;;;;;5074941;28;20039;-72
2023/01/05 00:40:32;;;;;;;37.85;4.60;;;10.40;99.90;;;;;;5077211;28;20024;-71
2023/01/05 00:42:58;;;;;;;29.45;4.55;;;10.30;99.90;;;;;;5062674;28;20570;-72
2023/01/05 00:45:24;;;;;;;37.83;4.53;;;10.30;99.90;;;;;;5075734;28;20501;-71
2023/01/05 00:47:53;;;;;;;31.98;4.15;;;10.40;99.90;;;;;;5078617;28;20384;-72
2023/01/05 00:50:20;;;;;;;32.88;4.20;;;10.50;99.90;;;;;;5076012;28;20533;-71
2023/01/05 00:52:47;;;;;;;24.90;4.50;;;10.60;99.90;;;;;;5075831;28;20063;-72
2023/01/05 00:55:13;;;;;;;25.88;3.58;;;10.60;99.90;;;;;;5075020;28;20115;-71
2023/01/05 00:57:39;;;;;;;38.85;5.32;;;10.60;99.90;;;;;;5072368;28;20054;-71
2023/01/05 01:00:07;;;;;;;36.30;4.25;;;10.60;99.90;;;;;;5060918;28;20123;-72
2023/01/05 01:02:32;;;;;;;36.67;4.35;;;10.50;99.90;;;;;;5076812;28;20427;-71
2023/01/05 01:04:58;;;;;;;33.25;4.45;;;10.40;99.90;;;;;;5077470;28;20042;-71
2023/01/05 01:07:24;;;;;;;30.88;4.05;;;10.40;99.90;;;;;;5078557;28;20055;-71
2023/01/05 01:09:50;;;;;;;37.10;4.95;;;10.40;99.90;;;;;;5080559;28;20511;-72
2023/01/05 01:12:15;;;;;;;26.95;3.60;;;10.40;99.90;;;;;;5081309;28;20027;-71
2023/01/05 01:14:41;;;;;;;32.72;5.20;;;10.40;99.90;;;;;;5078351;28;20036;-72
2023/01/05 01:17:06;;;;;;;38.75;4.88;;;10.30;99.90;;;;;;5079867;28;20151;-72
2023/01/05 01:19:32;;;;;;;34.25;4.20;;;10.20;99.90;;;;;;5080619;28;20115;-71
2023/01/05 01:21:58;;;;;;;35.75;4.63;;;10.20;99.90;;;;;;5079285;28;20596;-72
2023/01/05 01:24:26;;;;;;;39.13;4.63;;;10.20;99.90;;;;;;5078482;28;20039;-72
2023/01/05 01:26:53;;;;;;;33.97;4.15;;;10.20;99.90;;;;;;5078894;28;20395;-72
2023/01/05 01:29:20;;;;;;;44.15;5.50;;;10.10;99.90;;;;;;5079699;28;20024;-72
2023/01/05 01:31:47;;;;;;;30.88;3.92;;;10.10;99.90;;;;;;5080617;28;20465;-71
2023/01/05 01:34:13;;;;;;;33.03;4.30;;;10.10;99.90;;;;;;5081155;28;20191;-72
2023/01/05 01:36:39;;;;;;;24.17;4.10;;;10.10;99.90;;;;;;5088092;28;20039;-72
2023/01/05 01:39:05;;;;;;;39.08;4.03;;;10.20;99.90;;;;;;5079732;28;20024;-72
2023/01/05 01:41:30;;;;;;;29.92;4.50;;;10.20;99.90;;;;;;5079101;28;20043;-72
2023/01/05 01:43:57;;;;;;;35.97;4.07;;;10.20;99.90;;;;;;5080257;28;20039;-73
2023/01/05 01:46:24;;;;;;;31.70;4.40;;;10.20;99.90;;;;;;5078588;28;20207;-71
2023/01/05 01:49:04;;;;;;;37.90;4.03;;;10.30;99.90;;;;;;5079560;28;20082;-71
2023/01/05 01:51:30;;;;;;;35.05;4.60;;;10.30;99.90;;;;;;5078779;28;20032;-71
2023/01/05 01:53:58;;;;;;;40.92;4.28;;;10.40;99.90;;;;;;5078371;28;20107;-72
2023/01/05 01:56:29;;;;;;;22.65;3.72;;;10.40;99.90;;;;;;5080747;28;20474;-72
2023/01/05 01:58:55;;;;;;;36.15;4.32;;;10.40;99.90;;;;;;5079992;28;20442;-72
2023/01/05 02:01:21;;;;;;;38.08;4.88;;;10.50;99.90;;;;;;5080795;28;20036;-71
2023/01/05 02:03:46;;;;;;;32.63;4.90;;;10.50;99.90;;;;;;5076780;28;20047;-71
2023/01/05 02:06:12;;;;;;;34.65;4.20;;;10.50;99.90;;;;;;5059373;28;20110;-71
2023/01/05 02:08:38;;;;;;;27.13;4.38;;;10.50;99.90;;;;;;5075367;28;20028;-71
2023/01/05 02:11:12;;;;;;;31.45;4.40;;;10.50;99.90;;;;;;5061294;28;20115;-72
2023/01/05 02:14:12;;;;;;;35.65;3.85;;;10.50;99.90;;;;;;5079126;28;20084;-72
2023/01/05 02:17:08;;;;;;;28.23;3.40;;;10.50;99.90;;;;;;5079484;28;20028;-72
2023/01/05 02:19:37;;;;;;;32.20;3.92;;;10.40;99.90;;;;;;5078996;28;20028;-72
2023/01/05 02:22:25;;;;;;;33.03;4.22;;;10.50;99.90;;;;;;5079053;28;20237;-72
2023/01/05 02:25:32;;;;;;;40.20;3.92;;;10.50;99.90;;;;;;5079275;28;20332;-71
2023/01/05 02:28:33;;;;;;;30.05;4.32;;;10.50;99.90;;;;;;5052434;28;20044;-72
2023/01/05 02:31:16;;;;;;;28.98;4.20;;;10.60;99.90;;;;;;5075026;28;20398;-71
2023/01/05 02:34:07;;;;;;;31.20;3.55;;;10.60;99.90;;;;;;5070137;28;20032;-72
2023/01/05 02:36:35;;;;;;;30.88;3.42;;;10.60;99.90;;;;;;5088719;28;20582;-71
2023/01/05 02:39:06;;;;;;;33.17;4.18;;;10.60;99.90;;;;;;5078088;28;20036;-71
2023/01/05 02:41:43;;;;;;;27.92;4.05;;;10.70;99.90;;;;;;5079875;28;20024;-71
2023/01/05 02:44:09;;;;;;;27.08;3.80;;;10.70;99.90;;;;;;5078224;28;20043;-72
2023/01/05 02:46:35;;;;;;;26.73;3.90;;;10.80;99.90;;;;;;5079317;28;20449;-72
2023/01/05 02:49:03;;;;;;;36.38;4.47;;;10.80;99.90;;;;;;5081731;28;20024;-72
2023/01/05 02:51:35;;;;;;;31.10;4.07;;;10.80;99.90;;;;;;5073821;28;20030;-72
2023/01/05 02:54:10;;;;;;;35.75;3.80;;;10.80;99.90;;;;;;5079323;28;20032;-72
2023/01/05 02:56:43;;;;;;;31.27;4.40;;;10.80;99.90;;;;;;5082121;28;20030;-71
2023/01/05 02:59:12;;;;;;;31.40;4.38;;;10.80;99.90;;;;;;5068641;28;20222;-72
2023/01/05 03:02:00;;;;;;;37.75;4.68;;;10.80;99.90;;;;;;5074653;28;20424;-71
2023/01/05 03:04:50;;;;;;;25.15;5.00;;;10.80;99.90;;;;;;5070673;28;20107;-72
2023/01/05 03:07:21;;;;;;;32.15;4.10;;;10.90;99.90;;;;;;5066309;28;20040;-72
2023/01/05 03:09:47;;;;;;;34.75;4.15;;;10.90;99.90;;;;;;5078188;28;20039;-72
2023/01/05 03:15:28;;;;;;;33.92;4.00;;;10.80;99.90;;;;;;5078809;28;20089;-72
2023/01/05 03:18:09;;;;;;;30.42;4.93;;;10.80;99.90;;;;;;5078197;28;20024;-72
2023/01/05 03:20:39;;;;;;;40.58;5.03;;;10.80;99.90;;;;;;5077543;28;20027;-72
2023/01/05 03:37:37;;;;;;;30.80;4.13;;;10.70;99.90;;;;;;5075797;28;20543;-72
2023/01/05 03:40:09;;;;;;;28.92;3.88;;;10.80;99.90;;;;;;5078208;28;20035;-71
2023/01/05 03:42:35;;;;;;;;;;;10.70;99.90;;;;;;5079223;28;20429;-72
2023/01/05 03:45:01;;;;;;;35.92;4.40;;;10.70;99.90;;;;;;5078526;28;19934;-72
2023/01/05 03:47:26;;;;;;;39.20;4.70;;;10.70;99.90;;;;;;5077975;28;20100;-71
2023/01/05 03:49:52;;;;;;;47.00;5.35;;;10.70;99.90;;;;;;5075977;28;20565;-71
2023/01/05 03:52:17;;;;;;;30.55;3.95;;;10.70;99.90;;;;;;5076843;28;20036;-72
2023/01/05 03:54:43;;;;;;;25.08;3.88;;;10.60;99.90;;;;;;5075223;28;20039;-72
2023/01/05 03:57:09;;;;;;;39.08;4.90;;;10.50;99.90;;;;;;5077862;28;20047;-72
2023/01/05 03:59:34;;;;;;;30.48;4.20;;;10.60;99.90;;;;;;5077509;28;20024;-72
2023/01/05 04:02:00;;;;;;;29.77;4.22;;;10.60;99.90;;;;;;5074574;28;20566;-72
2023/01/05 04:04:25;;;;;;;29.63;3.72;;;10.60;99.90;;;;;;5071931;28;20081;-71
2023/01/05 04:06:51;;;;;;;30.48;3.72;;;10.60;99.90;;;;;;5073930;28;20043;-72
2023/01/05 04:09:16;;;;;;;31.88;4.00;;;10.70;99.90;;;;;;5071857;28;20027;-71
2023/01/05 04:11:42;;;;;;;35.70;4.97;;;10.60;99.90;;;;;;5076490;28;20066;-71
2023/01/05 04:14:08;;;;;;;38.80;5.22;;;10.60;99.90;;;;;;5078455;28;20382;-71
2023/01/05 04:16:33;;;;;;;40.22;4.50;;;10.60;99.90;;;;;;5077465;28;20036;-71
2023/01/05 04:18:59;;;;;;;37.72;4.25;;;10.60;99.90;;;;;;5077214;28;20435;-71
2023/01/05 04:21:25;;;;;;;28.40;4.13;;;10.60;99.90;;;;;;5076954;28;20035;-71
2023/01/05 04:23:50;;;;;;;33.95;4.82;;;10.60;99.90;;;;;;5076727;28;20439;-71
2023/01/05 04:26:16;;;;;;;34.72;4.78;;;10.60;99.90;;;;;;5078692;28;20036;-71
2023/01/05 04:28:41;;;;;;;34.55;4.60;;;10.60;99.90;;;;;;5076571;28;20036;-71
2023/01/05 04:31:07;;;;;;;34.60;3.95;;;10.70;99.90;;;;;;5076894;28;20092;-72
2023/01/05 04:33:33;;;;;;;30.83;4.88;;;10.60;99.90;;;;;;5077141;28;20036;-71
2023/01/05 04:35:58;;;;;;;27.52;3.78;;;10.60;99.90;;;;;;5077249;28;20036;-71
2023/01/05 04:38:24;;;;;;;46.25;4.60;;;10.60;99.90;;;;;;5077489;28;20442;-72
2023/01/05 04:40:50;;;;;;;28.50;4.30;;;10.60;99.90;;;;;;5072465;28;20075;-72
2023/01/05 04:43:17;;;;;;;28.98;3.97;;;10.60;99.90;;;;;;5076982;28;20370;-71
2023/01/05 04:45:46;;;;;;;37.33;4.88;;;10.60;99.90;;;;;;5072078;28;20419;-71
2023/01/05 04:48:12;;;;;;;38.38;4.78;;;10.70;99.90;;;;;;5066324;28;20020;-72
2023/01/05 04:50:37;;;;;;;35.45;4.15;;;10.60;99.90;;;;;;5076512;28;20300;-71
2023/01/05 04:53:03;;;;;;;27.10;3.90;;;10.50;99.90;;;;;;5075788;28;20523;-71
2023/01/05 04:55:28;;;;;;;30.42;4.38;;;10.50;99.90;;;;;;5072923;28;20079;-71
2023/01/05 04:57:54;;;;;;;25.42;3.90;;;10.50;99.90;;;;;;5076135;28;20060;-71
2023/01/05 05:00:20;;;;;;;32.22;4.38;;;10.50;99.90;;;;;;5077132;28;20028;-70
2023/01/05 05:02:46;;;;;;;35.40;4.47;;;10.50;99.90;;;;;;5076715;28;20020;-71
2023/01/05 05:05:12;;;;;;;43.38;5.20;;;10.50;99.90;;;;;;5074589;28;20101;-71
2023/01/05 05:07:37;;;;;;;35.35;4.85;;;10.50;99.90;;;;;;5076728;28;20036;-71
2023/01/05 05:10:03;;;;;;;29.92;4.57;;;10.40;99.90;;;;;;5076784;28;20036;-71
2023/01/05 05:12:29;;;;;;;37.95;4.57;;;10.40;99.90;;;;;;5076179;28;20030;-71
2023/01/05 05:14:55;;;;;;;31.55;5.00;;;10.40;99.90;;;;;;5073531;28;20398;-71
2023/01/05 05:17:20;;;;;;;34.38;3.83;;;10.30;99.90;;;;;;5074383;28;21012;-71
2023/01/05 05:19:46;;;;;;;26.95;4.05;;;10.30;99.90;;;;;;5073335;28;20301;-71
2023/01/05 05:22:11;;;;;;;27.55;3.85;;;10.30;99.90;;;;;;5076484;28;20103;-72
2023/01/05 05:24:37;;;;;;;41.15;4.15;;;10.20;99.90;;;;;;5076155;28;20102;-71
2023/01/05 05:27:03;;;;;;;36.67;5.50;;;10.10;99.90;;;;;;5077330;28;20095;-71
2023/01/05 05:29:29;;;;;;;31.55;4.65;;;10.20;99.90;;;;;;5075658;28;20028;-71
2023/01/05 05:31:54;;;;;;;40.78;4.78;;;10.20;99.90;;;;;;5072316;28;20505;-71
2023/01/05 05:34:20;;;;;;;31.70;5.05;;;10.30;99.90;;;;;;5073243;28;20032;-71
2023/01/05 05:36:45;;;;;;;26.73;4.40;;;10.30;99.90;;;;;;5073193;28;20052;-71
2023/01/05 05:39:12;;;;;;;34.15;3.97;;;10.30;99.90;;;;;;5076144;28;20035;-72
2023/01/05 05:41:38;;;;;;;32.45;3.83;;;10.30;99.90;;;;;;5076973;28;20036;-71
2023/01/05 05:44:04;;;;;;;33.17;4.38;;;10.30;99.90;;;;;;5077490;28;20483;-71
2023/01/05 05:46:29;;;;;;;30.40;4.28;;;10.30;99.90;;;;;;5080733;28;20112;-71
2023/01/05 05:48:57;;;;;;;43.78;5.25;;;10.20;99.90;;;;;;5069356;28;20032;-71
2023/01/05 05:51:23;;;;;;;43.03;5.05;;;10.20;99.90;;;;;;5077636;28;20019;-71
2023/01/05 05:53:50;;;;;;;33.42;4.45;;;10.20;99.90;;;;;;5077676;28;20028;-71
2023/01/05 05:56:15;;;;;;;41.08;4.82;;;10.30;99.90;;;;;;5079587;28;20135;-71
2023/01/05 05:58:41;;;;;;;31.70;4.05;;;10.30;99.90;;;;;;5080865;28;20095;-72
2023/01/05 06:01:07;;;;;;;40.15;5.70;;;10.30;99.90;;;;;;5078468;28;20032;-72
2023/01/05 06:03:33;;;;;;;38.65;4.70;;;10.30;99.90;;;;;;5077230;28;20024;-71
2023/01/05 06:05:59;;;;;;;42.13;5.13;;;10.30;99.90;;;;;;5074496;28;20124;-71
2023/01/05 06:08:26;;;;;;;35.95;3.58;;;10.30;99.90;;;;;;5079542;28;20097;-71
2023/01/05 06:10:51;;;;;;;36.28;3.88;;;10.30;99.90;;;;;;5077905;28;20030;-71
2023/01/05 06:13:17;;;;;;;26.80;4.40;;;10.30;99.90;;;;;;5076840;28;20028;-71
2023/01/05 06:15:43;;;;;;;29.67;3.88;;;10.30;99.90;;;;;;5077898;28;20054;-71
2023/01/05 06:18:08;;;;;;;32.58;4.47;;;10.30;99.90;;;;;;5077236;28;20032;-70
2023/01/05 06:20:35;;;;;;;32.33;4.28;;;10.30;99.90;;;;;;5076784;28;20515;-71
2023/01/05 06:23:00;;;;;;;41.05;4.40;;;10.30;99.90;;;;;;5075923;28;20544;-71
2023/01/05 06:25:26;;;;;;;33.50;4.15;;;10.30;99.90;;;;;;5077061;28;20035;-71
2023/01/05 06:27:52;;;;;;;31.67;3.95;;;10.30;99.90;;;;;;5075836;28;20038;-71
2023/01/05 06:30:17;;;;;;;45.03;5.10;;;10.40;99.90;;;;;;5074070;28;20494;-71
2023/01/05 06:32:43;;;;;;;36.30;4.68;;;10.40;99.90;;;;;;5075390;28;20110;-71
2023/01/05 06:35:09;;;;;;;32.22;4.50;;;10.40;99.90;;;;;;5074848;28;20425;-71
2023/01/05 06:37:35;;;;;;;24.90;3.47;;;10.30;99.90;;;;;;5076741;28;20052;-71
2023/01/05 06:40:01;;;;;;;31.92;4.03;;;10.20;99.90;;;;;;5081671;28;20529;-71
2023/01/05 06:42:27;;;;;;;35.70;3.88;;;10.20;99.90;;;;;;5074837;28;20020;-71
2023/01/05 06:44:52;;;;;;;38.13;4.15;;;10.10;99.90;;;;;;5073752;28;20035;-71
2023/01/05 06:47:18;;;;;;;42.25;5.35;;;10.20;99.90;;;;;;5076006;28;20115;-71
2023/01/05 06:49:44;;;;;;;37.83;4.55;;;10.20;99.90;;;;;;5075644;28;20119;-72
2023/01/05 06:52:10;;;;;;;37.00;5.35;;;10.30;99.90;;;;;;5077362;28;20506;-71
2023/01/05 06:54:35;;;;;;;37.13;4.32;;;10.30;99.90;;;;;;5076718;28;20020;-71
2023/01/05 06:57:01;;;;;;;43.08;4.25;;;10.40;99.90;;;;;;5077723;28;20460;-71
2023/01/05 06:59:27;;;;;;;50.22;5.82;;;10.40;99.90;;;;;;5074106;28;20494;-71
2023/01/05 07:01:52;;;;;;;42.92;4.95;;;10.50;99.90;;;;;;5073753;28;20028;-71
2023/01/05 07:04:18;;;;;;;39.38;4.53;;;10.50;99.90;;;;;;5072357;28;20050;-71
2023/01/05 07:06:44;;;;;;;36.63;4.90;;;10.60;99.90;;;;;;5074613;28;20080;-71
2023/01/05 07:09:10;;;;;;;33.08;3.90;;;10.60;99.90;;;;;;5078038;28;20415;-71
2023/01/05 07:11:35;;;;;;;35.60;3.75;;;10.70;99.90;;;;;;5078252;28;20100;-71
2023/01/05 07:14:01;;;;;;;34.45;3.90;;;10.70;99.90;;;;;;5076493;28;20031;-71
2023/01/05 07:16:27;;;;;;;33.08;4.85;;;10.80;99.90;;;;;;5077070;28;20502;-71
2023/01/05 07:18:52;;;;;;;38.53;4.32;;;10.80;99.90;;;;;;5076127;28;20028;-71
2023/01/05 07:21:18;;;;;;;27.23;3.83;;;10.80;99.90;;;;;;5076482;28;20028;-71
2023/01/05 07:23:43;;;;;;;35.17;3.92;;;10.90;99.90;;;;;;5072605;28;20096;-72
2023/01/05 07:26:09;;;;;;;31.70;3.50;;;10.80;99.90;;;;;;5073366;28;20567;-71
2023/01/05 07:28:37;;;;;;;27.58;3.53;;;10.80;99.90;;;;;;5076179;28;20536;-71
2023/01/05 07:31:06;;;;;;;36.83;3.70;;;10.80;99.90;;;;;;5074030;28;20335;-71
2023/01/05 07:33:32;;;;;;;37.40;4.78;;;10.90;99.90;;;;;;5077390;28;20200;-71
2023/01/05 07:36:02;;;;;;;31.95;3.42;;;10.90;99.90;;;;;;5071468;28;20133;-71
2023/01/05 07:38:28;;;;;;;25.88;3.33;;;10.90;99.90;;;;;;5067920;28;20074;-71
2023/01/05 07:40:56;;;;;;;32.63;3.40;;;11.00;99.90;;;;;;4719621;28;10000030;-72
2023/01/05 07:43:22;;;;;;;25.83;3.42;;;11.00;99.90;;;;;;5069126;28;20030;-71
2023/01/05 07:45:48;;;;;;;29.15;2.67;;;11.10;99.90;;;;;;5069893;28;20036;-71
2023/01/05 07:48:13;;;;;;;27.52;2.80;;;11.10;99.90;;;;;;5074840;28;20031;-71
2023/01/05 07:50:39;;;;;;;19.52;2.92;;;11.10;99.90;;;;;;5070880;28;20127;-72
2023/01/05 07:53:04;;;;;;;20.83;2.72;;;11.00;99.90;;;;;;5069997;28;20062;-71
2023/01/05 07:55:30;;;;;;;18.83;2.72;;;11.10;99.90;;;;;;5072963;28;20036;-71
2023/01/05 07:57:56;;;;;;;19.38;2.00;;;11.10;99.90;;;;;;5071623;28;20032;-71
2023/01/05 08:00:22;;;;;;;16.95;2.95;;;11.10;99.90;;;;;;5069954;28;20047;-71
2023/01/05 08:02:47;;;;;;;15.52;1.92;;;11.10;99.90;;;;;;5072805;28;20142;-71
2023/01/05 08:05:13;;;;;;;17.23;2.53;;;11.20;99.90;;;;;;5057614;28;20024;-72
2023/01/05 08:07:39;;;;;;;18.45;2.35;;;11.20;99.90;;;;;;5052914;28;20037;-71
2023/01/05 08:15:44;;;;;;;12.35;1.92;;;11.20;99.90;;;;;;5033468;28;20040;-71
2023/01/05 08:18:09;;;;;;;15.60;2.28;;;11.30;99.90;;;;;;5070563;28;20042;-71
2023/01/05 08:20:35;;;;;;;9.25;2.33;;;11.30;99.90;;;;;;5074964;28;20028;-71
2023/01/05 08:23:00;;;;;;;12.85;2.42;;;11.30;99.90;;;;;;5062051;28;20036;-71
2023/01/05 08:25:27;;;;;;;11.75;2.17;;;11.40;99.90;;;;;;5053758;28;20097;-71
2023/01/05 08:27:52;;;;;;;9.32;1.75;;;11.40;99.90;;;;;;5074604;28;20024;-70
2023/01/05 08:30:19;;;;;;;15.50;2.33;;;11.40;99.90;;;;;;5072252;28;20516;-71
2023/01/05 08:32:45;;;;;;;9.63;1.90;;;11.40;99.90;;;;;;5073312;28;20036;-71
2023/01/05 08:35:10;;;;;;;4.78;1.50;;;11.50;99.90;;;;;;5070515;28;20031;-71
2023/01/05 08:37:36;;;;;;;9.10;1.35;;;11.50;99.90;;;;;;5070444;28;20378;-71
2023/01/05 08:40:02;;;;;;;5.82;1.58;;;11.60;99.90;;;;;;5073294;28;20119;-72
2023/01/05 08:42:28;;;;;;;7.88;1.30;;;11.70;99.90;;;;;;5075343;28;20032;-71
2023/01/05 08:44:53;;;;;;;7.20;1.23;;;11.80;99.90;;;;;;5073593;28;20034;-71
2023/01/05 08:47:19;;;;;;;7.03;1.55;;;11.80;99.90;;;;;;5053418;28;20045;-71
2023/01/05 08:49:45;;;;;;;8.00;1.20;;;11.80;99.90;;;;;;5054895;28;20213;-71
2023/01/05 08:52:11;;;;;;;7.50;1.40;;;11.80;99.90;;;;;;5069206;28;20426;-71
2023/01/05 08:54:37;;;;;;;3.17;0.80;;;11.80;99.90;;;;;;5067140;28;20111;-71
2023/01/05 08:57:02;;;;;;;3.33;0.85;;;11.80;99.90;;;;;;5071112;28;20466;-71
2023/01/05 08:59:28;;;;;;;3.13;0.70;;;11.80;99.90;;;;;;5060669;28;20028;-71
2023/01/05 09:01:54;;;;;;;5.38;1.30;;;11.80;99.90;;;;;;5070218;28;20028;-70
2023/01/05 09:04:20;;;;;;;4.68;1.20;;;11.70;99.90;;;;;;5066254;28;20028;-71
2023/01/05 09:06:46;;;;;;;5.47;1.17;;;11.80;99.90;;;;;;5068311;28;20047;-71
2023/01/05 09:09:12;;;;;;;5.20;1.40;;;11.80;99.90;;;;;;5068096;28;20128;-70
2023/01/05 09:11:38;;;;;;;3.88;1.05;;;11.90;99.90;;;;;;5066667;28;20115;-71
2023/01/05 09:14:04;;;;;;;1.67;1.00;;;11.80;99.90;;;;;;5069980;28;20047;-71
2023/01/05 09:16:33;;;;;;;5.90;1.10;;;11.90;99.90;;;;;;5072292;28;20024;-70
2023/01/05 09:19:01;;;;;;;4.22;1.25;;;12.00;99.90;;;;;;5073523;28;20144;-71
2023/01/05 09:21:27;;;;;;;3.45;1.23;;;12.20;99.90;;;;;;5069181;28;20036;-71
2023/01/05 09:23:53;;;;;;;2.75;1.08;;;12.30;99.90;;;;;;5072600;28;20054;-71
2023/01/05 09:26:19;;;;;;;2.58;0.90;;;12.40;99.90;;;;;;5078986;28;20040;-70
2023/01/05 09:28:44;;;;;;;2.58;0.70;;;12.50;99.90;;;;;;5075314;28;20024;-70
2023/01/05 09:31:13;;;;;;;2.00;0.63;;;12.50;99.90;;;;;;5080216;28;20077;-70
2023/01/05 09:33:40;;;;;;;3.30;0.77;;;12.50;99.90;;;;;;5070944;28;20085;-70
2023/01/05 09:36:07;;;;;;;4.35;0.70;;;12.50;99.90;;;;;;5069419;28;20542;-71
2023/01/05 09:38:33;;;;;;;1.25;0.70;;;12.60;99.90;;;;;;5069541;28;20020;-71
2023/01/05 09:41:10;;;;;;;4.88;1.17;;;12.70;99.90;;;;;;5069815;28;20034;-70
2023/01/05 09:43:39;;;;;;;4.78;0.70;;;12.90;99.90;;;;;;5067292;28;20020;-70
2023/01/05 09:46:12;;;;;;;3.53;0.65;;;12.90;99.90;;;;;;5059122;28;20044;-71
2023/01/05 09:48:46;;;;;;;1.92;0.68;;;13.00;99.90;;;;;;5074053;28;20051;-71
2023/01/05 09:51:12;;;;;;;3.35;0.80;;;13.00;99.90;;;;;;5080520;28;20024;-71
2023/01/05 09:53:39;;;;;;;2.10;0.50;;;13.10;99.90;;;;;;5075224;28;20047;-73
2023/01/05 09:56:06;;;;;;;1.33;0.47;;;13.00;99.90;;;;;;5077517;28;20093;-71
2023/01/05 09:58:40;;;;;;;2.03;0.55;;;13.10;99.90;;;;;;5077198;28;20129;-71
2023/01/05 10:01:13;;;;;;;2.13;0.90;;;13.20;99.90;;;;;;5074409;28;20036;-71
2023/01/05 10:04:02;;;;;;;1.88;0.70;;;13.20;99.90;;;;;;5075360;28;20032;-70
2023/01/05 10:06:38;;;;;;;2.17;0.88;;;13.10;99.90;;;;;;5069418;28;20035;-71
2023/01/05 10:09:06;;;;;;;3.70;1.20;;;13.20;99.90;;;;;;5070405;28;20122;-72
2023/01/05 10:14:56;;;;;;;3.42;1.40;;;13.10;99.90;;;;;;5060214;28;20228;-73
2023/01/05 10:17:23;;;;;;;4.07;1.20;;;13.10;99.90;;;;;;5077180;28;20391;-72
2023/01/05 10:19:49;;;;;;;7.78;1.00;;;13.00;99.90;;;;;;5077181;28;20474;-72
2023/01/05 10:22:31;;;;;;;4.30;1.10;;;12.90;99.90;;;;;;5073383;28;20028;-72
2023/01/05 10:25:00;;;;;;;3.95;0.90;;;12.90;99.90;;;;;;5075223;28;20103;-72
2023/01/05 10:27:26;;;;;;;2.85;0.88;;;12.90;99.90;;;;;;5074312;28;20051;-72
2023/01/05 10:30:12;;;;;;;3.03;1.00;;;12.80;99.90;;;;;;5080360;28;20036;-72
2023/01/05 10:32:53;;;;;;;3.65;1.00;;;12.80;99.90;;;;;;5078211;28;20031;-72
2023/01/05 10:35:18;;;;;;;6.20;1.10;;;12.80;99.90;;;;;;5070056;28;20029;-73
2023/01/05 10:37:53;;;;;;;4.05;0.85;;;12.70;99.90;;;;;;5066409;28;20668;-71
2023/01/05 10:40:34;;;;;;;3.17;0.80;;;12.90;99.90;;;;;;5070892;28;20032;-72
2023/01/05 10:43:11;;;;;;;5.17;1.00;;;12.90;99.90;;;;;;5075599;28;20100;-72
2023/01/05 10:45:37;;;;;;;5.00;0.88;;;13.00;99.90;;;;;;5069991;28;20584;-72
2023/01/05 10:48:10;;;;;;;6.78;1.40;;;12.90;99.90;;;;;;5075230;28;20036;-72
2023/01/05 10:50:38;;;;;;;6.13;1.00;;;13.00;99.90;;;;;;5077541;28;20036;-72
2023/01/05 10:53:23;;;;;;;5.22;0.90;;;13.20;99.90;;;;;;5076574;28;20059;-72
2023/01/05 10:56:12;;;;;;;9.07;1.45;;;13.20;99.90;;;;;;5076824;28;20038;-72
2023/01/05 10:58:41;;;;;;;7.40;1.20;;;13.30;99.90;;;;;;5077564;28;20046;-72
2023/01/05 11:01:36;;;;;;;6.60;0.80;;;13.40;99.90;;;;;;5076159;28;20035;-72
2023/01/05 11:04:06;;;;;;;6.65;1.00;;;13.50;99.90;;;;;;5058118;28;20052;-72
2023/01/05 11:06:35;;;;;;;9.00;1.43;;;13.70;99.90;;;;;;5074217;28;20135;-72
2023/01/05 11:09:22;;;;;;;7.25;1.13;;;13.70;99.90;;;;;;5073842;28;20024;-70
2023/01/05 11:11:55;;;;;;;7.35;1.10;;;13.70;99.90;;;;;;4724225;28;10000042;-72
2023/01/05 11:14:22;;;;;;;4.63;1.08;;;13.80;99.90;;;;;;5065815;28;20486;-72
2023/01/05 11:16:51;;;;;;;7.75;1.30;;;13.70;99.90;;;;;;5074333;28;20012;-70
2023/01/05 11:19:21;;;;;;;10.20;1.40;;;13.60;99.90;;;;;;5070216;28;20051;-71
2023/01/05 11:21:47;;;;;;;7.20;1.27;;;13.60;99.90;;;;;;5071585;28;20051;-71
2023/01/05 11:24:33;;;;;;;6.50;1.30;;;13.40;99.90;;;;;;5072484;28;20402;-70
2023/01/05 11:27:21;;;;;;;7.47;1.42;;;13.20;99.90;;;;;;5073701;28;20050;-71
2023/01/05 11:30:27;;;;;;;13.48;1.70;;;13.20;99.90;;;;;;5070047;28;20028;-72
2023/01/05 11:32:53;;;;;;;10.25;1.42;;;13.10;99.90;;;;;;5071019;28;20116;-71
2023/01/05 11:35:31;;;;;;;7.57;1.50;;;13.10;99.90;;;;;;5068553;28;20110;-70
2023/01/05 11:37:56;;;;;;;9.13;2.00;;;13.20;99.90;;;;;;5071082;28;20324;-70
2023/01/05 11:40:28;;;;;;;9.68;1.30;;;13.10;99.90;;;;;;5072125;28;20276;-70
2023/01/05 11:42:54;;;;;;;9.98;1.40;;;13.20;99.90;;;;;;5069174;28;20040;-71
2023/01/05 11:45:27;;;;;;;9.98;1.63;;;13.30;99.90;;;;;;5077350;28;20109;-71
2023/01/05 11:47:52;;;;;;;6.32;1.33;;;13.30;99.90;;;;;;5077159;28;20579;-70
2023/01/05 11:50:23;;;;;;;13.65;2.13;;;13.20;99.90;;;;;;5067104;28;20025;-70
2023/01/05 11:52:57;;;;;;;13.55;2.28;;;13.30;99.90;;;;;;5076504;28;20151;-70
2023/01/05 11:55:36;;;;;;;15.55;1.50;;;13.30;99.90;;;;;;5070384;28;20028;-71
2023/01/05 11:58:21;;;;;;;14.48;1.85;;;13.30;99.90;;;;;;5064672;28;20026;-71
2023/01/05 12:01:05;;;;;;;11.73;1.80;;;13.20;99.90;;;;;;5077732;28;20036;-71
2023/01/05 12:03:56;;;;;;;13.40;1.40;;;13.20;99.90;;;;;;5077947;28;20035;-70
2023/01/05 12:06:31;;;;;;;8.55;1.52;;;13.60;99.90;;;;;;5024542;28;20051;-71
2023/01/05 12:09:12;;;;;;;13.90;1.42;;;13.60;99.90;;;;;;5071203;28;20122;-70
2023/01/05 12:12:10;;;;;;;10.20;1.73;;;13.70;99.90;;;;;;5077667;28;20020;-70
2023/01/05 12:14:44;;;;;;;11.55;1.50;;;13.70;99.90;;;;;;5076304;28;20032;-70
2023/01/05 12:17:14;;;;;;;8.88;1.40;;;13.90;99.90;;;;;;5077090;28;20030;-71
2023/01/05 12:20:04;;;;;;;13.98;1.70;;;14.00;99.90;;;;;;5077519;28;20712;-70
2023/01/05 12:22:41;;;;;;;9.45;1.40;;;14.00;99.90;;;;;;5069028;28;20028;-70
2023/01/05 12:25:12;;;;;;;12.95;1.90;;;13.90;99.90;;;;;;5067663;28;20040;-70
2023/01/05 12:27:52;;;;;;;15.70;1.75;;;14.00;99.90;;;;;;5070698;28;20427;-71
2023/01/05 12:30:23;;;;;;;11.38;1.80;;;14.00;99.90;;;;;;5073178;28;20036;-70
2023/01/05 12:33:03;;;;;;;12.30;1.60;;;13.90;99.90;;;;;;5071897;28;20032;-70
2023/01/05 12:36:07;;;;;;;12.52;1.92;;;13.80;99.90;;;;;;5074391;28;20535;-71
2023/01/05 12:38:45;;;;;;;12.68;1.73;;;13.70;99.90;;;;;;4991319;28;20117;-71
2023/01/05 12:41:33;;;;;;;14.30;2.20;;;13.80;99.90;;;;;;5063756;28;20097;-70
2023/01/05 12:44:24;;;;;;;16.92;2.15;;;13.90;99.90;;;;;;5068666;28;20031;-70
2023/01/05 12:46:56;;;;;;;16.63;2.50;;;13.80;99.90;;;;;;5073845;28;20503;-71
2023/01/05 12:49:29;;;;;;;14.38;2.35;;;13.70;99.90;;;;;;5075936;28;20479;-70
2023/01/05 12:52:20;;;;;;;16.85;2.17;;;13.70;99.90;;;;;;5073902;28;20034;-70
2023/01/05 12:54:58;;;;;;;13.50;2.00;;;13.70;99.90;;;;;;5076897;28;20043;-70
2023/01/05 12:57:44;;;;;;;23.60;2.75;;;13.50;99.90;;;;;;5080338;28;20027;-71
2023/01/05 13:00:10;;;;;;;23.08;2.60;;;13.50;99.90;;;;;;5081277;28;20028;-70
2023/01/05 13:02:52;;;;;;;21.40;2.63;;;13.50;99.90;;;;;;5080688;28;20487;-70
2023/01/05 13:05:35;;;;;;;26.02;3.15;;;13.40;99.90;;;;;;5081735;28;20023;-70
2023/01/05 13:08:16;;;;;;;20.90;2.70;;;13.40;99.90;;;;;;5079948;28;20055;-72
2023/01/05 13:11:16;;;;;;;21.02;3.00;;;13.40;99.90;;;;;;5080245;28;20394;-71
2023/01/05 13:13:48;;;;;;;19.05;2.55;;;13.50;99.90;;;;;;5074295;28;20079;-70
2023/01/05 13:16:26;;;;;;;23.38;3.67;;;13.60;99.90;;;;;;5076275;28;20040;-71
2023/01/05 13:19:03;;;;;;;25.77;2.42;;;13.80;99.90;;;;;;5074150;28;20272;-72
2023/01/05 13:21:30;;;;;;;21.50;3.20;;;13.80;99.90;;;;;;5070498;28;20036;-72
2023/01/05 13:24:08;;;;;;;24.52;2.90;;;13.70;99.90;;;;;;5070021;28;20028;-70
2023/01/05 13:26:36;;;;;;;29.10;3.35;;;13.50;99.90;;;;;;5074848;28;20482;-72
2023/01/05 13:29:02;;;;;;;24.02;3.70;;;13.40;99.90;;;;;;5076857;28;20101;-72
2023/01/05 13:32:06;;;;;;;24.90;3.25;;;13.30;99.90;;;;;;5075189;28;20028;-72
2023/01/05 13:34:37;;;;;;;22.73;3.28;;;13.30;99.90;;;;;;5059492;28;20531;-72